Time;durP1;ratioP1;P1;durP2;ratioP2;P2;SDS_P1;SDS_P2;PMS_P1;PMS_P2;Temp;Humidity;BMP_temperature;BMP_pressure;BME280_temperature;BME280_humidity;BME280_pressure;Samples;Min_cycle;Max_cycle;Signal;HPM_P1;HPM_P2
2022/05/28 00:01:09;;;;;;;5.40;2.50;;;;;;;15.76;75.54;98731.20;1694502;84;21027;-78
2022/05/28 00:03:36;;;;;;;7.85;3.42;;;;;;;15.75;74.93;98729.02;1696494;84;20967;-78
2022/05/28 00:06:11;;;;;;;5.10;3.33;;;;;;;15.73;75.68;98729.57;1720216;83;21070;-78
2022/05/28 00:08:38;;;;;;;7.78;3.50;;;;;;;15.72;74.32;98731.79;1697930;83;21538;-79
2022/05/28 00:11:18;;;;;;;6.80;3.12;;;;;;;15.73;73.76;98727.42;1718889;83;21058;-80
2022/05/28 00:13:46;;;;;;;6.30;3.47;;;;;;;15.69;74.41;98721.45;1693960;83;21030;-80
2022/05/28 00:16:13;;;;;;;6.85;3.83;;;;;;;15.65;74.16;98716.83;1719719;83;21027;-78
2022/05/28 00:18:41;;;;;;;5.45;3.47;;;;;;;15.63;73.82;98718.68;1716122;83;21476;-78
2022/05/28 00:21:10;;;;;;;8.25;3.52;;;;;;;15.57;75.34;98717.69;1704119;83;21051;-79
2022/05/28 00:23:39;;;;;;;7.40;3.65;;;;;;;15.56;76.16;98716.45;1695827;83;21142;-81
2022/05/28 00:26:06;;;;;;;5.17;3.37;;;;;;;15.54;75.11;98713.94;1693741;84;21559;-78
2022/05/28 00:28:34;;;;;;;9.45;3.80;;;;;;;15.51;73.98;98711.46;1682117;83;21014;-79
2022/05/28 00:31:01;;;;;;;9.43;3.95;;;;;;;15.49;75.23;98710.69;1710977;83;21032;-78
2022/05/28 00:33:30;;;;;;;11.18;4.10;;;;;;;15.46;75.57;98712.17;1717923;83;20999;-78
2022/05/28 00:35:58;;;;;;;6.12;3.55;;;;;;;15.44;73.74;98704.86;1706597;84;21908;-79
2022/05/28 00:38:26;;;;;;;5.87;3.55;;;;;;;15.38;75.22;98711.25;1714904;83;21502;-79
2022/05/28 00:40:57;;;;;;;7.83;3.45;;;;;;;15.36;74.43;98716.16;1705299;84;21075;-78
2022/05/28 00:43:24;;;;;;;13.43;3.50;;;;;;;15.33;75.38;98720.27;1707435;83;21515;-78
2022/05/28 00:45:56;;;;;;;7.80;3.65;;;;;;;15.29;74.79;98712.55;1710841;84;21074;-79
2022/05/28 00:48:27;;;;;;;9.00;3.60;;;;;;;15.26;76.38;98710.09;1704656;84;21023;-78
2022/05/28 00:50:54;;;;;;;6.58;3.10;;;;;;;15.24;78.11;98705.41;1706453;84;21115;-78
2022/05/28 00:53:21;;;;;;;5.65;3.25;;;;;;;15.24;77.44;98698.86;1707430;83;21014;-79
2022/05/28 00:55:47;;;;;;;7.45;3.40;;;;;;;15.23;76.95;98692.38;1710139;82;21020;-79
2022/05/28 00:58:15;;;;;;;8.18;3.10;;;;;;;15.22;76.96;98691.54;1708518;84;21007;-79
2022/05/28 01:00:42;;;;;;;6.92;3.35;;;;;;;15.22;77.39;98691.98;1706682;84;21064;-80
2022/05/28 01:03:41;;;;;;;7.33;3.25;;;;;;;15.23;76.57;98695.84;1704162;83;21614;-79
2022/05/28 01:06:29;;;;;;;6.37;3.10;;;;;;;15.23;76.83;98693.22;1709639;83;21012;-78
2022/05/28 01:09:03;;;;;;;5.92;3.20;;;;;;;15.23;77.32;98678.81;1706640;83;21375;-78
2022/05/28 01:11:49;;;;;;;5.55;3.12;;;;;;;15.25;77.46;98682.20;1708982;83;21008;-77
2022/05/28 01:14:27;;;;;;;8.08;3.27;;;;;;;15.24;77.44;98682.27;1720064;83;21320;-79
2022/05/28 01:17:05;;;;;;;7.62;3.67;;;;;;;15.24;75.67;98686.20;1707178;83;21016;-80
2022/05/28 01:20:00;;;;;;;7.47;3.30;;;;;;;15.27;75.64;98691.30;1719949;83;21047;-79
2022/05/28 01:23:06;;;;;;;5.90;3.22;;;;;;;15.25;76.61;98688.75;1708883;83;21055;-80
2022/05/28 01:26:10;;;;;;;11.88;3.47;;;;;;;15.25;76.07;98684.82;1714171;83;20969;-79
2022/05/28 01:28:45;;;;;;;5.95;3.50;;;;;;;15.24;76.01;98679.22;1701694;83;21347;-80
2022/05/28 01:31:13;;;;;;;6.42;4.40;;;;;;;15.15;76.46;98684.91;1720054;83;21071;-79
2022/05/28 01:33:42;;;;;;;7.00;3.70;;;;;;;15.05;77.10;98680.59;1705052;83;21057;-79
2022/05/28 01:36:11;;;;;;;6.97;3.90;;;;;;;14.97;78.28;98680.13;1716843;83;21028;-82
2022/05/28 01:38:42;;;;;;;8.43;3.33;;;;;;;14.91;78.48;98676.52;1713277;83;20969;-79
2022/05/28 01:41:11;;;;;;;14.65;3.58;;;;;;;14.88;77.34;98674.03;1716477;83;21578;-79
2022/05/28 01:43:41;;;;;;;12.47;3.20;;;;;;;14.83;80.50;98669.50;1707216;83;21027;-79
2022/05/28 01:46:12;;;;;;;6.45;3.40;;;;;;;14.84;77.30;98670.74;1718490;83;21003;-80
2022/05/28 01:48:42;;;;;;;6.53;3.37;;;;;;;14.82;78.35;98668.66;1703870;83;21042;-79
2022/05/28 01:51:11;;;;;;;8.08;3.60;;;;;;;14.82;78.64;98672.59;1709703;83;21016;-79
2022/05/28 01:56:24;;;;;;;7.75;3.52;;;;;;;14.75;78.77;98675.11;1718386;83;20996;-79
2022/05/28 01:58:52;;;;;;;14.55;4.08;;;;;;;14.73;79.34;98684.80;1717336;83;21504;-79
2022/05/28 02:01:19;;;;;;;5.90;3.27;;;;;;;14.71;79.91;98693.19;1719652;83;21067;-79
2022/05/28 02:03:51;;;;;;;8.85;3.60;;;;;;;14.64;78.49;98686.11;1707884;83;20999;-79
2022/05/28 02:06:19;;;;;;;6.15;3.25;;;;;;;14.57;80.77;98695.16;1717277;83;21008;-79
2022/05/28 02:08:49;;;;;;;9.93;3.58;;;;;;;14.54;80.02;98688.72;1713008;83;21027;-79
2022/05/28 02:11:20;;;;;;;6.62;3.75;;;;;;;14.48;81.62;98678.55;1706418;83;21019;-80
2022/05/28 02:14:13;;;;;;;6.58;3.80;;;;;;;14.46;81.10;98673.42;1712672;83;20979;-79
2022/05/28 02:17:13;;;;;;;5.83;3.30;;;;;;;14.46;82.08;98662.95;1697118;84;21154;-79
2022/05/28 02:20:09;;;;;;;6.90;3.50;;;;;;;14.47;83.02;98660.71;1647023;87;21094;-79
2022/05/28 02:22:58;;;;;;;14.70;3.90;;;;;;;14.51;81.16;98650.48;1647375;87;20996;-79
2022/05/28 02:25:51;;;;;;;10.80;4.12;;;;;;;14.51;80.82;98641.33;1690786;83;21055;-79
2022/05/28 02:28:22;;;;;;;12.88;3.70;;;;;;;14.52;80.10;98646.96;1713006;84;21524;-78
2022/05/28 02:30:54;;;;;;;7.58;3.35;;;;;;;14.51;80.06;98649.64;1711731;83;21028;-78
2022/05/28 02:33:21;;;;;;;7.47;4.03;;;;;;;14.47;80.45;98647.63;1716413;83;21024;-79
2022/05/28 02:35:48;;;;;;;8.30;3.60;;;;;;;14.46;82.57;98655.11;1709763;83;21554;-79
2022/05/28 02:38:17;;;;;;;6.45;3.67;;;;;;;14.44;80.09;98651.72;1717170;83;21027;-79
2022/05/28 02:40:44;;;;;;;8.95;3.37;;;;;;;14.44;80.84;98653.47;1717026;83;21035;-79
2022/05/28 02:43:11;;;;;;;12.35;3.72;;;;;;;14.44;80.35;98656.95;1718128;83;21053;-80
2022/05/28 02:45:39;;;;;;;8.68;3.75;;;;;;;14.42;80.37;98658.76;1712529;83;21570;-79
2022/05/28 02:48:07;;;;;;;7.00;3.50;;;;;;;14.44;81.12;98650.41;1701087;83;21486;-79
2022/05/28 02:50:34;;;;;;;10.93;3.85;;;;;;;14.47;81.14;98650.25;1715390;83;21542;-79
2022/05/28 02:53:01;;;;;;;8.93;3.90;;;;;;;14.49;81.03;98657.56;1703656;83;21065;-79
2022/05/28 02:55:28;;;;;;;7.05;3.67;;;;;;;14.48;81.45;98644.11;1715347;83;21502;-80
2022/05/28 02:57:54;;;;;;;10.00;3.72;;;;;;;14.50;80.43;98644.02;1714567;83;21051;-79
2022/05/28 03:00:21;;;;;;;9.73;3.80;;;;;;;14.52;80.15;98642.17;1718178;83;21020;-80
2022/05/28 03:02:49;;;;;;;6.42;3.62;;;;;;;14.52;80.00;98653.94;1712186;83;21003;-79
2022/05/28 03:05:19;;;;;;;8.00;3.92;;;;;;;14.52;80.59;98646.96;1710033;83;21035;-79
2022/05/28 03:07:45;;;;;;;5.78;3.58;;;;;;;14.56;80.39;98649.41;1710100;83;21004;-78
2022/05/28 03:10:13;;;;;;;6.72;4.00;;;;;;;14.59;81.04;98657.16;1719746;83;20972;-79
2022/05/28 03:12:40;;;;;;;7.30;3.80;;;;;;;14.60;79.88;98645.76;1715635;83;20987;-79
2022/05/28 03:15:09;;;;;;;8.23;4.12;;;;;;;14.61;79.71;98646.16;1726015;83;21006;-81
2022/05/28 03:17:37;;;;;;;8.35;4.33;;;;;;;14.57;81.63;98639.38;1726898;83;21558;-79
2022/05/28 03:20:06;;;;;;;7.30;3.50;;;;;;;14.55;81.94;98635.50;1696603;83;21001;-79
2022/05/28 03:22:32;;;;;;;7.97;3.55;;;;;;;14.56;80.75;98635.89;1703153;84;21016;-79
2022/05/28 03:24:59;;;;;;;8.55;3.67;;;;;;;14.56;81.21;98629.36;1713657;82;21087;-79
2022/05/28 03:27:26;;;;;;;5.92;3.60;;;;;;;14.53;81.07;98625.09;1709310;84;21000;-79
2022/05/28 03:29:52;;;;;;;8.60;3.92;;;;;;;14.51;82.70;98636.09;1719585;83;21000;-79
2022/05/28 03:32:19;;;;;;;6.08;3.58;;;;;;;14.50;81.95;98627.88;1718213;83;20996;-79
2022/05/28 03:34:45;;;;;;;10.30;4.10;;;;;;;14.56;81.39;98628.05;1695690;84;21060;-79
2022/05/28 03:37:12;;;;;;;7.25;3.83;;;;;;;14.61;82.57;98631.77;1707941;84;21489;-80
2022/05/28 03:39:39;;;;;;;9.25;3.55;;;;;;;14.67;82.36;98627.55;1702243;84;21018;-79
2022/05/28 03:42:06;;;;;;;8.08;3.22;;;;;;;14.74;82.13;98628.08;1704949;83;21550;-79
2022/05/28 03:44:32;;;;;;;6.95;3.80;;;;;;;14.79;81.63;98626.93;1705072;83;21320;-79
2022/05/28 03:47:00;;;;;;;7.47;3.20;;;;;;;14.85;81.52;98624.47;1703821;84;21447;-79
2022/05/28 03:49:31;;;;;;;5.97;3.25;;;;;;;14.87;80.24;98623.94;1704669;84;21030;-78
2022/05/28 03:51:58;;;;;;;7.30;4.03;;;;;;;14.81;81.93;98622.47;1704131;84;21095;-79
2022/05/28 03:54:25;;;;;;;5.20;3.20;;;;;;;14.82;82.24;98629.41;1705093;84;20999;-79
2022/05/28 03:56:57;;;;;;;6.70;3.30;;;;;;;14.87;82.90;98627.86;1698253;84;21015;-79
2022/05/28 03:59:23;;;;;;;7.30;3.42;;;;;;;14.98;81.58;98633.85;1707444;84;21011;-80
2022/05/28 04:01:50;;;;;;;7.45;3.27;;;;;;;15.03;81.21;98637.94;1714634;84;21008;-80
2022/05/28 04:04:17;;;;;;;5.95;3.70;;;;;;;15.16;81.34;98636.00;1712187;83;21484;-79
2022/05/28 04:06:44;;;;;;;13.03;3.98;;;;;;;15.27;80.84;98638.92;1709333;83;21091;-79
2022/05/28 04:09:10;;;;;;;9.20;3.70;;;;;;;15.37;80.96;98643.23;1716017;83;21492;-79
2022/05/28 04:11:38;;;;;;;6.70;3.33;;;;;;;15.48;80.43;98638.28;1706126;83;21110;-79
2022/05/28 04:14:06;;;;;;;6.40;3.40;;;;;;;15.60;80.24;98640.25;1709716;84;21055;-78
2022/05/28 04:16:35;;;;;;;10.88;3.50;;;;;;;15.71;79.75;98638.36;1704277;83;21552;-79
2022/05/28 04:19:02;;;;;;;6.65;3.35;;;;;;;15.80;79.53;98620.87;1684965;84;21582;-79
2022/05/28 04:21:28;;;;;;;8.85;3.33;;;;;;;15.91;79.18;98632.08;1704535;83;21051;-79
2022/05/28 04:23:55;;;;;;;7.92;3.62;;;;;;;15.94;78.85;98635.86;1708278;83;21106;-79
2022/05/28 04:26:22;;;;;;;7.25;4.30;;;;;;;15.93;78.82;98642.02;1709799;83;21516;-79
2022/05/28 04:28:49;;;;;;;6.03;3.50;;;;;;;15.97;79.31;98643.53;1709582;84;21003;-79
2022/05/28 04:31:15;;;;;;;10.30;3.80;;;;;;;15.98;79.52;98645.24;1708439;83;21062;-79
2022/05/28 04:33:42;;;;;;;7.47;3.65;;;;;;;16.05;78.52;98637.88;1711391;83;20980;-79
2022/05/28 04:36:09;;;;;;;13.20;4.45;;;;;;;16.06;79.05;98640.89;1713725;83;21078;-79
2022/05/28 04:38:35;;;;;;;8.58;3.30;;;;;;;16.12;78.58;98640.55;1712440;83;21015;-79
2022/05/28 04:41:02;;;;;;;6.95;3.45;;;;;;;16.22;78.53;98643.52;1716160;83;20963;-79
2022/05/28 04:43:29;;;;;;;6.83;2.65;;;;;;;16.32;77.94;98639.45;1713364;83;21051;-79
2022/05/28 04:45:55;;;;;;;5.70;2.87;;;;;;;16.32;77.90;98656.97;1717858;83;21019;-80
2022/05/28 04:48:22;;;;;;;9.13;3.52;;;;;;;16.39;77.94;98659.14;1709847;83;21039;-79
2022/05/28 04:50:49;;;;;;;6.62;3.20;;;;;;;16.53;77.86;98658.38;1719179;83;21099;-79
2022/05/28 04:53:15;;;;;;;6.72;3.42;;;;;;;16.66;77.43;98671.19;1706835;83;20995;-79
2022/05/28 04:55:44;;;;;;;14.00;3.58;;;;;;;16.74;77.02;98674.69;1716850;83;21036;-79
2022/05/28 04:58:12;;;;;;;8.03;3.08;;;;;;;16.83;76.75;98677.28;1717874;83;22096;-79
2022/05/28 05:00:41;;;;;;;8.68;3.10;;;;;;;16.98;76.58;98680.81;1716851;83;21574;-79
2022/05/28 05:03:08;;;;;;;7.35;3.70;;;;;;;17.15;76.24;98695.13;1717663;83;21499;-79
2022/05/28 05:05:35;;;;;;;8.55;3.00;;;;;;;17.32;75.83;98691.50;1711261;83;21500;-79
2022/05/28 05:08:02;;;;;;;8.15;3.50;;;;;;;17.44;75.41;98686.83;1713704;83;21059;-80
2022/05/28 05:10:29;;;;;;;7.62;3.37;;;;;;;17.55;74.95;98686.20;1713944;83;21538;-79
2022/05/28 05:12:55;;;;;;;6.33;2.90;;;;;;;17.67;74.66;98697.76;1715625;83;21019;-79
2022/05/28 05:15:22;;;;;;;9.98;3.22;;;;;;;17.79;74.38;98688.28;1691724;83;21035;-80
2022/05/28 05:17:48;;;;;;;7.42;3.22;;;;;;;17.87;73.64;98686.05;1707098;83;21538;-79
2022/05/28 05:20:16;;;;;;;5.53;3.08;;;;;;;17.89;73.21;98686.80;1708442;83;21003;-78
2022/05/28 05:22:42;;;;;;;8.03;3.05;;;;;;;17.96;73.07;98689.89;1717758;82;21043;-80
2022/05/28 05:25:12;;;;;;;5.50;3.02;;;;;;;17.97;72.83;98686.34;1710471;83;21042;-80
2022/05/28 05:27:40;;;;;;;5.67;3.20;;;;;;;18.01;72.51;98691.78;1701248;84;21086;-79
2022/05/28 05:30:08;;;;;;;6.67;2.95;;;;;;;18.03;71.96;98703.88;1689495;83;21043;-79
2022/05/28 05:32:35;;;;;;;9.63;3.45;;;;;;;17.96;71.88;98695.98;1714064;83;21587;-79
2022/05/28 05:35:02;;;;;;;7.37;3.35;;;;;;;17.94;71.76;98698.34;1713634;83;21071;-79
2022/05/28 05:37:28;;;;;;;6.65;3.30;;;;;;;17.88;71.57;98700.88;1722415;83;21059;-79
2022/05/28 05:39:55;;;;;;;9.20;3.20;;;;;;;17.82;71.46;98697.28;1718259;83;20988;-79
2022/05/28 05:42:21;;;;;;;5.67;3.33;;;;;;;17.80;71.75;98705.73;1716882;83;21076;-78
2022/05/28 05:44:48;;;;;;;6.53;3.12;;;;;;;17.81;71.52;98704.81;1718321;83;21020;-80
2022/05/28 05:47:15;;;;;;;7.42;3.33;;;;;;;17.80;71.57;98703.94;1707813;83;20995;-78
2022/05/28 05:49:41;;;;;;;6.17;3.10;;;;;;;17.80;71.39;98705.25;1718350;83;20986;-79
2022/05/28 05:52:08;;;;;;;11.85;3.42;;;;;;;17.79;71.62;98705.37;1718599;83;20947;-79
2022/05/28 05:54:34;;;;;;;8.20;3.05;;;;;;;17.85;71.91;98705.86;1716364;83;20999;-79
2022/05/28 05:57:01;;;;;;;9.18;2.98;;;;;;;17.90;72.27;98709.52;1715678;83;21014;-80
2022/05/28 05:59:28;;;;;;;6.12;2.92;;;;;;;17.97;72.40;98712.16;1716254;83;20980;-79
2022/05/28 06:01:55;;;;;;;7.00;3.08;;;;;;;18.05;72.16;98711.21;1715413;83;21059;-79
2022/05/28 06:04:22;;;;;;;6.53;2.92;;;;;;;18.13;72.04;98713.37;1719508;83;20996;-79
2022/05/28 06:06:49;;;;;;;9.38;3.42;;;;;;;18.14;71.93;98707.63;1717788;83;20999;-78
2022/05/28 06:09:16;;;;;;;7.78;4.53;;;;;;;18.17;71.66;98698.25;1709415;83;21065;-79
2022/05/28 06:11:43;;;;;;;8.80;4.12;;;;;;;18.20;71.48;98701.50;1717492;83;21054;-79
2022/05/28 06:14:09;;;;;;;9.35;4.40;;;;;;;18.22;71.21;98706.67;1718435;83;21056;-79
2022/05/28 06:16:37;;;;;;;15.93;4.45;;;;;;;18.21;70.99;98711.58;1712632;83;21523;-78
2022/05/28 06:19:06;;;;;;;7.72;4.33;;;;;;;18.26;70.94;98709.48;1711808;83;21046;-79
2022/05/28 06:21:33;;;;;;;10.18;3.87;;;;;;;18.29;70.43;98720.67;1713223;83;20972;-79
2022/05/28 06:24:01;;;;;;;8.95;4.28;;;;;;;18.24;70.58;98720.13;1721430;82;21726;-80
2022/05/28 06:26:28;;;;;;;6.53;4.10;;;;;;;18.22;70.86;98717.20;1705666;83;21006;-79
2022/05/28 06:28:55;;;;;;;11.40;4.12;;;;;;;18.26;70.98;98712.12;1715565;83;21086;-79
2022/05/28 06:31:21;;;;;;;12.37;3.62;;;;;;;18.29;70.59;98710.63;1709642;83;21038;-78
2022/05/28 06:33:48;;;;;;;9.90;3.10;;;;;;;18.34;70.31;98716.42;1708339;83;21052;-78
2022/05/28 06:36:15;;;;;;;9.70;3.30;;;;;;;18.35;70.20;98719.45;1707687;83;21067;-79
2022/05/28 06:38:42;;;;;;;8.60;3.52;;;;;;;18.40;70.41;98725.72;1710162;83;21515;-79
2022/05/28 06:41:09;;;;;;;5.95;3.40;;;;;;;18.49;70.06;98724.67;1708965;83;21038;-79
2022/05/28 06:43:36;;;;;;;9.45;4.80;;;;;;;18.58;69.86;98730.30;1702769;84;21134;-79
2022/05/28 06:46:07;;;;;;;14.73;6.33;;;;;;;18.61;69.67;98733.58;1716931;83;20999;-79
2022/05/28 06:48:36;;;;;;;11.65;5.80;;;;;;;18.67;69.43;98731.03;1708635;84;21774;-79
2022/05/28 06:51:05;;;;;;;14.40;6.08;;;;;;;18.72;69.15;98728.09;1715915;84;21378;-79
2022/05/28 06:53:51;;;;;;;8.20;4.45;;;;;;;18.72;68.88;98732.05;1708267;83;21035;-79
2022/05/28 06:56:19;;;;;;;13.90;5.25;;;;;;;18.76;68.95;98734.41;1708716;84;21078;-79
2022/05/28 06:58:46;;;;;;;17.70;5.75;;;;;;;18.76;68.70;98719.92;1700335;84;21003;-79
2022/05/28 07:01:16;;;;;;;10.80;5.15;;;;;;;18.76;68.61;98719.92;1700391;84;21637;-79
2022/05/28 07:03:43;;;;;;;10.05;5.30;;;;;;;18.67;68.67;98717.39;1703249;84;21027;-80
2022/05/28 07:06:11;;;;;;;8.63;4.55;;;;;;;18.67;68.70;98711.28;1704944;84;21034;-78
2022/05/28 07:08:38;;;;;;;12.10;4.60;;;;;;;18.68;69.00;98703.74;1701880;84;21110;-79
2022/05/28 07:11:05;;;;;;;13.93;5.10;;;;;;;18.71;68.99;98696.97;1704293;84;21074;-79
2022/05/28 07:13:34;;;;;;;12.18;4.62;;;;;;;18.75;68.84;98698.47;1691109;84;21550;-79
2022/05/28 07:16:03;;;;;;;8.20;4.90;;;;;;;18.76;68.97;98687.00;1703086;84;21058;-80
2022/05/28 07:18:30;;;;;;;14.98;4.72;;;;;;;18.78;69.20;98684.24;1709421;84;21556;-79
2022/05/28 07:20:57;;;;;;;10.38;4.42;;;;;;;18.84;69.16;98691.33;1709730;84;21005;-79
2022/05/28 07:23:29;;;;;;;12.40;4.83;;;;;;;18.86;69.06;98695.15;1709259;84;21064;-79
2022/05/28 07:26:12;;;;;;;15.48;4.90;;;;;;;18.97;69.08;98690.52;1702102;84;21502;-80
2022/05/28 07:28:41;;;;;;;11.40;4.30;;;;;;;19.07;68.81;98691.59;1690672;84;21550;-80
2022/05/28 07:31:11;;;;;;;13.50;4.60;;;;;;;19.15;68.29;98695.87;1703695;84;21525;-80
2022/05/28 07:33:41;;;;;;;13.75;4.70;;;;;;;19.14;68.10;98696.83;1709104;84;21017;-79
2022/05/28 07:36:12;;;;;;;12.45;4.28;;;;;;;19.16;67.92;98696.25;1693740;84;21007;-79
2022/05/28 07:38:40;;;;;;;8.88;4.85;;;;;;;19.16;67.63;98700.20;1707097;84;21020;-79
2022/05/28 07:41:12;;;;;;;14.50;5.00;;;;;;;19.12;67.70;98696.54;1699121;84;21716;-78
2022/05/28 07:43:39;;;;;;;10.73;5.47;;;;;;;19.10;67.51;98693.16;1706917;84;21092;-80
2022/05/28 07:46:17;;;;;;;11.28;5.25;;;;;;;19.13;67.61;98687.22;1729695;82;20975;-79
2022/05/28 07:48:44;;;;;;;11.88;5.22;;;;;;;19.20;67.96;98685.01;1729687;83;21408;-79
2022/05/28 07:51:12;;;;;;;9.85;5.10;;;;;;;19.24;67.98;98678.13;1729763;82;21050;-78
2022/05/28 07:53:39;;;;;;;16.65;4.58;;;;;;;19.29;68.15;98685.72;1734007;83;20951;-80
2022/05/28 07:56:07;;;;;;;11.80;5.33;;;;;;;19.26;67.90;98685.47;1734212;82;21085;-80
2022/05/28 07:58:34;;;;;;;9.13;4.70;;;;;;;19.28;67.64;98695.91;1730790;83;21063;-81
2022/05/28 08:01:02;;;;;;;7.95;4.05;;;;;;;19.28;67.50;98710.41;1731460;82;21013;-78
2022/05/28 08:03:29;;;;;;;7.12;4.30;;;;;;;19.22;68.01;98718.72;1730491;82;21059;-79
2022/05/28 08:05:56;;;;;;;10.70;4.03;;;;;;;19.19;68.03;98723.70;1731337;82;20999;-79
2022/05/28 08:08:27;;;;;;;10.85;4.30;;;;;;;19.18;67.92;98729.06;1730536;83;21555;-79
2022/05/28 08:10:54;;;;;;;12.28;4.03;;;;;;;19.15;68.12;98736.71;1730592;83;20995;-79
2022/05/28 08:13:24;;;;;;;9.15;4.45;;;;;;;19.10;68.24;98742.77;1729070;82;21593;-79
2022/05/28 08:15:53;;;;;;;9.93;4.45;;;;;;;19.00;68.66;98747.80;1730023;83;21007;-79
2022/05/28 08:18:24;;;;;;;9.55;4.33;;;;;;;18.98;68.70;98748.82;1720884;82;20982;-79
2022/05/28 08:23:40;;;;;;;13.80;6.72;;;;;;;18.99;68.52;98748.73;1729955;82;21007;-79
2022/05/28 08:26:08;;;;;;;8.60;4.37;;;;;;;19.08;68.67;98745.50;1731538;83;21051;-78
2022/05/28 08:28:37;;;;;;;9.85;4.42;;;;;;;19.18;69.28;98748.38;1720671;82;21062;-79
2022/05/28 08:31:04;;;;;;;8.80;4.37;;;;;;;19.24;69.65;98751.92;1730626;82;21436;-81
2022/05/28 08:33:32;;;;;;;7.87;3.92;;;;;;;19.28;68.97;98752.09;1730040;82;21023;-79
2022/05/28 08:35:59;;;;;;;9.70;3.95;;;;;;;19.28;69.76;98757.36;1730424;83;21316;-78
2022/05/28 08:38:27;;;;;;;6.70;4.35;;;;;;;19.35;70.60;98753.00;1731381;83;21120;-80
2022/05/28 08:41:04;;;;;;;8.73;3.90;;;;;;;19.46;71.21;98754.45;1731530;83;21432;-79
2022/05/28 08:43:54;;;;;;;7.67;3.83;;;;;;;19.63;71.37;98758.09;1730700;82;21053;-80
2022/05/28 08:46:23;;;;;;;7.17;3.67;;;;;;;19.82;71.51;98762.17;1728225;83;21046;-79
2022/05/28 08:48:55;;;;;;;7.12;3.67;;;;;;;19.95;71.64;98762.99;1731047;82;20976;-79
2022/05/28 08:51:48;;;;;;;9.85;3.98;;;;;;;20.02;71.46;98766.91;1719766;83;20996;-79
2022/05/28 08:54:56;;;;;;;8.43;3.87;;;;;;;20.01;71.34;98764.37;1728950;82;21018;-79
2022/05/28 08:57:19;;;;;;;7.17;3.92;;;;;;;20.00;71.15;98767.97;1728545;83;21033;-79
2022/05/28 09:00:00;;;;;;;10.75;4.75;;;;;;;19.96;71.32;98766.02;1729780;82;21023;-80
2022/05/28 09:02:40;;;;;;;6.92;4.05;;;;;;;19.99;71.74;98768.42;1730285;82;21018;-80
2022/05/28 09:05:25;;;;;;;11.75;4.75;;;;;;;19.94;71.61;98765.28;1729793;82;20996;-79
2022/05/28 09:07:57;;;;;;;7.92;4.45;;;;;;;19.91;72.50;98769.91;1727541;82;21019;-77
2022/05/28 09:10:25;;;;;;;6.15;4.08;;;;;;;20.03;72.71;98774.34;1729857;82;20995;-79
2022/05/28 09:13:06;;;;;;;6.58;4.65;;;;;;;20.07;72.80;98777.13;1727516;83;21033;-79
2022/05/28 09:15:35;;;;;;;9.63;5.25;;;;;;;20.18;72.36;98781.69;1730305;82;21031;-80
2022/05/28 09:18:03;;;;;;;8.90;5.12;;;;;;;20.30;73.15;98776.03;1730881;83;21065;-79
2022/05/28 09:20:43;;;;;;;8.08;4.25;;;;;;;20.39;72.69;98770.95;1730765;82;21005;-79
2022/05/28 09:23:10;;;;;;;11.03;5.65;;;;;;;20.42;71.87;98763.27;1731875;83;21003;-79
2022/05/28 09:25:43;;;;;;;11.25;5.05;;;;;;;20.42;72.76;98765.43;1730483;82;21510;-79
2022/05/28 09:28:23;;;;;;;10.45;4.83;;;;;;;20.51;72.38;98769.69;1731788;83;21034;-79
2022/05/28 09:31:01;;;;;;;9.95;4.62;;;;;;;20.60;72.03;98763.79;1730897;82;21024;-79
2022/05/28 09:34:10;;;;;;;11.65;4.50;;;;;;;20.57;72.36;98767.92;1727958;83;20982;-79
2022/05/28 09:36:58;;;;;;;7.85;4.50;;;;;;;20.63;72.60;98772.34;1729876;82;21069;-78
2022/05/28 09:39:49;;;;;;;6.75;4.17;;;;;;;20.62;72.87;98769.80;1731643;83;21539;-78
2022/05/28 09:42:46;;;;;;;7.47;4.00;;;;;;;20.63;72.53;98767.52;1730430;82;21074;-79
2022/05/28 09:45:27;;;;;;;8.10;3.77;;;;;;;20.61;72.97;98774.70;1728085;82;21058;-78
2022/05/28 09:47:54;;;;;;;7.20;3.37;;;;;;;20.35;72.67;98772.56;1728481;83;21550;-78
2022/05/28 09:50:26;;;;;;;8.70;3.45;;;;;;;20.20;73.42;98778.46;1728642;83;21014;-78
2022/05/28 09:56:12;;;;;;;4.97;3.40;;;;;;;19.90;74.40;98775.67;1711608;83;20995;-80
2022/05/28 09:58:41;;;;;;;8.13;2.80;;;;;;;19.70;73.30;98780.12;1732130;83;21068;-79
2022/05/28 10:01:27;;;;;;;7.53;3.40;;;;;;;19.39;75.08;98781.67;1732345;83;21470;-79
2022/05/28 10:06:51;;;;;;;7.08;3.02;;;;;;;18.99;76.34;98768.96;1716148;83;21015;-78
2022/05/28 10:09:26;;;;;;;5.58;2.83;;;;;;;18.88;76.30;98772.30;1728890;83;21007;-78
2022/05/28 10:12:00;;;;;;;5.03;3.10;;;;;;;18.70;77.04;98780.84;1732124;83;21017;-79
2022/05/28 10:14:31;;;;;;;6.47;2.77;;;;;;;18.60;76.97;98775.80;1727775;83;21522;-78
2022/05/28 10:17:03;;;;;;;8.18;2.90;;;;;;;18.52;77.37;98780.22;1728424;83;21454;-77
2022/05/28 10:19:43;;;;;;;4.95;2.77;;;;;;;18.48;76.95;98776.09;1728593;83;21024;-79
2022/05/28 10:22:19;;;;;;;6.40;2.75;;;;;;;18.38;77.79;98776.30;1716776;83;20986;-78
2022/05/28 10:24:50;;;;;;;6.00;2.77;;;;;;;18.36;78.48;98772.91;1730310;83;20987;-79
2022/05/28 10:27:28;;;;;;;7.80;3.12;;;;;;;18.28;78.69;98777.33;1717611;83;20979;-83
2022/05/28 10:29:59;;;;;;;8.85;3.12;;;;;;;18.27;79.06;98780.44;1730044;83;21517;-78
2022/05/28 10:32:34;;;;;;;5.92;3.05;;;;;;;18.19;78.80;98779.23;1732492;83;21540;-78
2022/05/28 10:35:09;;;;;;;7.42;3.12;;;;;;;18.18;78.19;98782.79;1731591;83;21030;-78
2022/05/28 10:37:36;;;;;;;6.40;3.08;;;;;;;18.26;78.78;98769.56;1730201;83;21002;-78
2022/05/28 10:40:17;;;;;;;6.40;2.85;;;;;;;18.34;77.33;98768.22;1730885;83;21005;-78
2022/05/28 10:42:45;;;;;;;8.38;3.20;;;;;;;18.35;78.37;98775.19;1732961;83;21011;-80
2022/05/28 10:45:17;;;;;;;6.97;2.95;;;;;;;18.21;79.48;98776.04;1731107;83;21061;-78
2022/05/28 10:48:11;;;;;;;4.25;2.70;;;;;;;18.22;79.43;98783.84;1732193;83;21010;-79
2022/05/28 10:50:43;;;;;;;8.25;3.20;;;;;;;18.20;79.52;98776.97;1730671;81;21030;-80
2022/05/28 10:53:32;;;;;;;6.53;2.98;;;;;;;18.17;79.00;98771.91;1732307;83;21037;-79
2022/05/28 10:56:20;;;;;;;6.50;3.17;;;;;;;18.20;78.69;98783.06;1722086;82;21042;-78
2022/05/28 10:58:55;;;;;;;6.20;2.80;;;;;;;18.12;80.16;98774.80;1730362;83;21089;-79
2022/05/28 11:01:46;;;;;;;7.70;3.22;;;;;;;18.15;79.34;98769.84;1730464;82;21515;-78
2022/05/28 11:04:30;;;;;;;6.17;3.20;;;;;;;18.19;79.56;98773.97;1731540;83;20982;-78
2022/05/28 11:07:14;;;;;;;4.20;2.98;;;;;;;18.20;79.39;98781.75;1728701;82;21034;-79
2022/05/28 11:10:02;;;;;;;5.58;3.30;;;;;;;18.18;79.41;98780.16;1732187;82;20988;-79
2022/05/28 11:12:50;;;;;;;7.15;3.87;;;;;;;18.15;80.33;98772.47;1728143;83;21012;-80
2022/05/28 11:15:52;;;;;;;6.67;4.03;;;;;;;18.07;80.69;98779.03;1731814;82;21047;-79
2022/05/28 11:18:31;;;;;;;8.45;3.70;;;;;;;18.06;80.59;98777.81;1731421;83;21018;-79
2022/05/28 11:21:33;;;;;;;14.40;3.70;;;;;;;18.04;80.22;98778.37;1722970;82;21106;-78
2022/05/28 11:24:25;;;;;;;8.68;3.70;;;;;;;17.98;80.85;98776.95;1731385;82;20980;-78
2022/05/28 11:27:09;;;;;;;8.05;3.60;;;;;;;17.98;80.31;98775.64;1713806;82;21095;-79
2022/05/28 11:30:04;;;;;;;5.28;3.08;;;;;;;17.93;80.99;98772.45;1722494;83;21019;-79
2022/05/28 11:32:36;;;;;;;5.78;3.65;;;;;;;17.84;81.82;98771.20;1729906;82;21003;-78
2022/05/28 11:35:23;;;;;;;11.88;4.00;;;;;;;17.79;80.98;98776.36;1729449;83;21010;-80
2022/05/28 11:38:13;;;;;;;5.97;3.65;;;;;;;17.79;81.16;98773.73;1729694;82;21012;-79
2022/05/28 11:41:00;;;;;;;4.72;3.22;;;;;;;17.77;80.87;98761.98;1724784;83;21587;-79
2022/05/28 11:43:31;;;;;;;8.75;3.40;;;;;;;17.78;81.27;98770.23;1729459;82;21031;-79
2022/05/28 11:46:48;;;;;;;6.20;3.08;;;;;;;17.80;80.86;98774.93;1725949;83;21070;-79
2022/05/28 11:52:42;;;;;;;6.33;3.07;;;;;;;17.86;81.10;98777.70;1703687;83;20993;-79
2022/05/28 11:55:19;;;;;;;8.85;3.37;;;;;;;17.84;80.98;98765.11;1714949;83;21702;-78
2022/05/28 11:58:07;;;;;;;7.83;3.20;;;;;;;17.91;81.35;98775.66;1709377;83;20990;-79
2022/05/28 12:00:38;;;;;;;6.53;3.40;;;;;;;17.94;81.16;98776.77;1722098;83;21501;-78
2022/05/28 12:03:16;;;;;;;6.05;2.83;;;;;;;17.98;81.12;98773.01;1722065;83;21031;-80
2022/05/28 12:05:54;;;;;;;7.78;3.17;;;;;;;18.01;81.15;98772.84;1716048;83;21002;-79
2022/05/28 12:08:33;;;;;;;6.35;3.58;;;;;;;18.05;80.22;98773.02;1704705;83;22440;-78
2022/05/28 12:11:08;;;;;;;7.58;3.12;;;;;;;18.08;80.39;98778.11;1716774;83;21027;-79